Time;durP1;ratioP1;P1;durP2;ratioP2;P2;SDS_P1;SDS_P2;PMS_P1;PMS_P2;Temp;Humidity;BMP_temperature;BMP_pressure;BME280_temperature;BME280_humidity;BME280_pressure;Samples;Min_cycle;Max_cycle;Signal;HPM_P1;HPM_P2
2021/12/08 00:00:03;;;;;;;0.00;0.00;;;;;;;;;;1726911;28;20269;-71
2021/12/08 00:00:56;;;;;;;0.00;0.00;;;;;;;;;;1723688;28;20260;-71
2021/12/08 00:01:48;;;;;;;0.08;0.08;;;;;;;;;;1726699;28;20231;-71
2021/12/08 00:02:39;;;;;;;0.10;0.10;;;;;;;;;;1725245;28;20211;-71
2021/12/08 00:03:31;;;;;;;0.00;0.00;;;;;;;;;;1726371;28;20208;-71
2021/12/08 00:04:22;;;;;;;0.00;0.00;;;;;;;;;;1724489;28;20215;-71
2021/12/08 00:05:16;;;;;;;0.00;0.00;;;;;;;;;;1727157;28;20224;-71
2021/12/08 00:06:07;;;;;;;0.00;0.00;;;;;;;;;;1724091;28;20236;-71
2021/12/08 00:06:59;;;;;;;0.10;0.10;;;;;;;;;;1726766;28;20812;-71
2021/12/08 00:07:51;;;;;;;0.00;0.00;;;;;;;;;;1726099;28;20208;-71
2021/12/08 00:08:49;;;;;;;0.00;0.00;;;;;;;;;;1726443;28;20206;-71
2021/12/08 00:09:49;;;;;;;0.00;0.00;;;;;;;;;;1725545;28;20211;-71
2021/12/08 00:13:01;;;;;;;0.00;0.00;;;;;;;;;;1725076;28;20263;-71
2021/12/08 00:13:15;;;;;;;0.10;0.10;;;;;;;;;;1725034;28;20279;-71
2021/12/08 00:14:06;;;;;;;0.00;0.00;;;;;;;;;;1725972;28;20213;-71
2021/12/08 00:14:59;;;;;;;0.00;0.00;;;;;;;;;;1726886;28;20609;-71
2021/12/08 00:15:51;;;;;;;0.00;0.00;;;;;;;;;;1724396;28;20238;-71
2021/12/08 00:16:43;;;;;;;0.10;0.10;;;;;;;;;;1725563;28;20230;-71
2021/12/08 00:17:34;;;;;;;0.00;0.00;;;;;;;;;;1726272;28;20214;-71
2021/12/08 00:18:27;;;;;;;0.00;0.00;;;;;;;;;;1726413;28;20230;-70
2021/12/08 00:19:19;;;;;;;0.00;0.00;;;;;;;;;;1725410;28;20254;-71
2021/12/08 00:20:11;;;;;;;0.00;0.00;;;;;;;;;;1726920;28;20230;-71
2021/12/08 00:21:04;;;;;;;0.10;0.10;;;;;;;;;;1724002;28;20768;-71
2021/12/08 00:21:56;;;;;;;0.00;0.00;;;;;;;;;;1726399;28;20223;-71
2021/12/08 00:22:47;;;;;;;0.00;0.00;;;;;;;;;;1725782;28;20760;-71
2021/12/08 00:23:40;;;;;;;0.00;0.00;;;;;;;;;;1726657;28;20417;-71
2021/12/08 00:24:31;;;;;;;0.00;0.00;;;;;;;;;;1725999;28;20628;-71
2021/12/08 00:25:24;;;;;;;0.00;0.00;;;;;;;;;;1726100;28;20581;-71
2021/12/08 00:26:15;;;;;;;0.10;0.10;;;;;;;;;;1718838;28;20239;-71
2021/12/08 00:27:07;;;;;;;0.00;0.00;;;;;;;;;;1718037;28;20209;-71
2021/12/08 00:27:59;;;;;;;0.00;0.00;;;;;;;;;;1719309;28;20639;-71
2021/12/08 00:28:53;;;;;;;0.00;0.00;;;;;;;;;;1718253;28;20663;-71
2021/12/08 00:29:44;;;;;;;0.00;0.00;;;;;;;;;;1719630;28;20231;-71
2021/12/08 00:30:37;;;;;;;0.10;0.10;;;;;;;;;;1718190;28;20235;-71
2021/12/08 00:31:28;;;;;;;0.10;0.10;;;;;;;;;;1719931;28;20222;-71
2021/12/08 00:32:25;;;;;;;0.00;0.00;;;;;;;;;;1719292;28;20288;-70
2021/12/08 00:33:18;;;;;;;0.00;0.00;;;;;;;;;;1719403;28;20516;-71
2021/12/08 00:34:10;;;;;;;0.00;0.00;;;;;;;;;;1718770;28;20701;-71
2021/12/08 00:35:02;;;;;;;0.00;0.00;;;;;;;;;;1719432;28;20217;-71
2021/12/08 00:35:55;;;;;;;0.17;0.17;;;;;;;;;;1718293;28;20221;-71
2021/12/08 00:36:50;;;;;;;0.00;0.00;;;;;;;;;;1719565;28;20212;-71
2021/12/08 00:37:42;;;;;;;0.00;0.00;;;;;;;;;;1718982;28;20208;-71
2021/12/08 00:38:34;;;;;;;0.00;0.00;;;;;;;;;;1719665;28;20608;-71
2021/12/08 00:39:25;;;;;;;0.00;0.00;;;;;;;;;;1718463;28;20211;-71
2021/12/08 00:40:18;;;;;;;0.20;0.20;;;;;;;;;;1719610;28;20233;-71
2021/12/08 00:41:11;;;;;;;0.10;0.10;;;;;;;;;;1723234;28;20581;-71
2021/12/08 00:42:03;;;;;;;0.10;0.10;;;;;;;;;;1726144;28;20223;-71
2021/12/08 00:42:54;;;;;;;0.00;0.00;;;;;;;;;;1725141;28;20227;-71
2021/12/08 00:43:47;;;;;;;0.10;0.10;;;;;;;;;;1725531;28;20206;-71
2021/12/08 00:44:39;;;;;;;0.00;0.00;;;;;;;;;;1725693;28;20204;-71
2021/12/08 00:45:31;;;;;;;0.03;0.03;;;;;;;;;;1724750;28;20207;-71
2021/12/08 00:46:22;;;;;;;0.00;0.00;;;;;;;;;;1724999;28;20663;-71
2021/12/08 00:47:15;;;;;;;0.10;0.10;;;;;;;;;;1725089;28;20297;-71
2021/12/08 00:48:06;;;;;;;0.00;0.00;;;;;;;;;;1726149;28;20206;-71
2021/12/08 00:48:59;;;;;;;0.10;0.10;;;;;;;;;;1725329;28;20234;-71
2021/12/08 00:49:50;;;;;;;0.00;0.00;;;;;;;;;;1726014;28;20219;-71
2021/12/08 00:50:43;;;;;;;0.10;0.10;;;;;;;;;;1724612;28;20406;-71
2021/12/08 00:51:34;;;;;;;0.00;0.00;;;;;;;;;;1726224;28;20495;-71
2021/12/08 00:52:29;;;;;;;0.00;0.00;;;;;;;;;;1723931;28;20288;-71
2021/12/08 00:53:20;;;;;;;0.10;0.10;;;;;;;;;;1726233;28;20294;-71
2021/12/08 00:54:12;;;;;;;0.10;0.10;;;;;;;;;;1724857;28;20295;-71
2021/12/08 00:55:06;;;;;;;0.00;0.00;;;;;;;;;;1724516;28;20208;-71
2021/12/08 00:55:58;;;;;;;0.00;0.00;;;;;;;;;;1721639;28;20523;-71
2021/12/08 00:56:50;;;;;;;0.00;0.00;;;;;;;;;;1726079;28;20349;-71
2021/12/08 00:57:42;;;;;;;0.00;0.00;;;;;;;;;;1724948;28;20204;-71
2021/12/08 00:58:33;;;;;;;0.10;0.10;;;;;;;;;;1725686;28;20204;-71
2021/12/08 00:59:25;;;;;;;0.10;0.10;;;;;;;;;;1725246;28;20290;-71
2021/12/08 01:00:19;;;;;;;0.10;0.10;;;;;;;;;;1725677;28;20279;-71
2021/12/08 01:01:12;;;;;;;0.00;0.00;;;;;;;;;;1720344;28;20240;-71
2021/12/08 01:02:04;;;;;;;0.00;0.00;;;;;;;;;;1724738;28;20642;-71
2021/12/08 01:02:56;;;;;;;0.10;0.10;;;;;;;;;;1725983;28;20725;-71
2021/12/08 01:03:48;;;;;;;0.08;0.08;;;;;;;;;;1724826;28;20712;-71
2021/12/08 01:04:40;;;;;;;0.00;0.00;;;;;;;;;;1725650;28;20200;-71
2021/12/08 01:05:32;;;;;;;0.00;0.00;;;;;;;;;;1724740;28;20204;-71
2021/12/08 01:06:24;;;;;;;0.10;0.10;;;;;;;;;;1725383;28;20257;-71
2021/12/08 01:07:15;;;;;;;0.08;0.08;;;;;;;;;;1724602;28;20220;-71
2021/12/08 01:08:08;;;;;;;0.00;0.00;;;;;;;;;;1725695;28;20303;-71
2021/12/08 01:08:59;;;;;;;0.00;0.00;;;;;;;;;;1724693;28;20214;-71
2021/12/08 01:09:52;;;;;;;0.00;0.00;;;;;;;;;;1725542;28;20299;-71
2021/12/08 01:10:44;;;;;;;0.10;0.10;;;;;;;;;;1723845;28;20244;-71
2021/12/08 01:11:36;;;;;;;0.00;0.00;;;;;;;;;;1726192;28;20687;-71
2021/12/08 01:12:28;;;;;;;0.00;0.00;;;;;;;;;;1723793;28;20218;-71
2021/12/08 01:13:19;;;;;;;0.00;0.00;;;;;;;;;;1725773;28;20514;-71
2021/12/08 01:14:12;;;;;;;0.15;0.15;;;;;;;;;;1725111;28;21970;-71
2021/12/08 01:15:07;;;;;;;0.17;0.17;;;;;;;;;;1726323;28;20204;-71
2021/12/08 01:16:01;;;;;;;0.00;0.00;;;;;;;;;;1723478;28;20231;-71
2021/12/08 01:16:52;;;;;;;0.08;0.08;;;;;;;;;;1725565;28;20207;-71
2021/12/08 01:17:44;;;;;;;0.20;0.20;;;;;;;;;;1725457;28;20231;-71
2021/12/08 01:18:35;;;;;;;0.20;0.20;;;;;;;;;;1725851;28;20215;-71
2021/12/08 01:19:28;;;;;;;0.00;0.00;;;;;;;;;;1724134;28;20623;-71
2021/12/08 01:20:19;;;;;;;0.00;0.00;;;;;;;;;;1726147;28;20249;-71
2021/12/08 01:21:12;;;;;;;0.10;0.10;;;;;;;;;;1724763;28;20721;-71
2021/12/08 01:22:03;;;;;;;0.10;0.10;;;;;;;;;;1724590;28;20461;-71
2021/12/08 01:22:56;;;;;;;0.10;0.10;;;;;;;;;;1721338;28;20213;-71
2021/12/08 01:23:47;;;;;;;0.00;0.00;;;;;;;;;;1725587;28;20212;-71
2021/12/08 01:24:39;;;;;;;0.00;0.00;;;;;;;;;;1725641;28;20236;-71
2021/12/08 01:25:30;;;;;;;0.00;0.00;;;;;;;;;;1724463;28;20219;-71
2021/12/08 01:26:23;;;;;;;0.00;0.00;;;;;;;;;;1722061;28;20288;-71
2021/12/08 01:27:14;;;;;;;0.10;0.10;;;;;;;;;;1724571;28;20298;-71
2021/12/08 01:28:06;;;;;;;0.00;0.00;;;;;;;;;;1725359;28;20759;-71
2021/12/08 01:28:57;;;;;;;0.00;0.00;;;;;;;;;;1724862;28;20212;-71
2021/12/08 01:29:50;;;;;;;0.10;0.10;;;;;;;;;;1725943;28;20204;-71
2021/12/08 01:30:41;;;;;;;0.00;0.00;;;;;;;;;;1723978;28;20581;-71
2021/12/08 01:31:36;;;;;;;0.10;0.10;;;;;;;;;;1725917;28;20204;-71
2021/12/08 01:32:27;;;;;;;0.00;0.00;;;;;;;;;;1725122;28;20252;-71
2021/12/08 01:33:20;;;;;;;0.20;0.20;;;;;;;;;;1725558;28;20238;-71
2021/12/08 01:34:12;;;;;;;0.00;0.00;;;;;;;;;;1724639;28;20204;-71
2021/12/08 01:35:07;;;;;;;0.10;0.10;;;;;;;;;;1725899;28;20200;-71
2021/12/08 01:35:58;;;;;;;0.15;0.15;;;;;;;;;;1723569;28;20321;-71
2021/12/08 01:36:50;;;;;;;0.00;0.00;;;;;;;;;;1725634;28;20204;-71
2021/12/08 01:37:42;;;;;;;0.08;0.08;;;;;;;;;;1724399;28;20208;-71
2021/12/08 01:38:34;;;;;;;0.00;0.00;;;;;;;;;;1725867;28;20257;-71
2021/12/08 01:39:26;;;;;;;0.00;0.00;;;;;;;;;;1724060;28;20206;-71
2021/12/08 01:40:18;;;;;;;0.10;0.10;;;;;;;;;;1726066;28;20197;-71
2021/12/08 01:41:09;;;;;;;0.10;0.10;;;;;;;;;;1724638;28;20508;-71
2021/12/08 01:42:02;;;;;;;0.10;0.10;;;;;;;;;;1725088;28;20643;-71
2021/12/08 01:42:56;;;;;;;0.10;0.10;;;;;;;;;;1725287;28;20208;-71
2021/12/08 01:46:05;;;;;;;0.00;0.00;;;;;;;;;;1722635;28;20340;-71
2021/12/08 01:46:58;;;;;;;0.10;0.10;;;;;;;;;;1725536;28;20675;-71
2021/12/08 01:47:49;;;;;;;0.00;0.00;;;;;;;;;;1725099;28;20210;-71
2021/12/08 01:48:45;;;;;;;0.00;0.00;;;;;;;;;;1725104;28;20262;-71
2021/12/08 01:49:36;;;;;;;0.00;0.00;;;;;;;;;;1721387;28;20653;-71
2021/12/08 01:50:29;;;;;;;0.20;0.20;;;;;;;;;;1724867;28;20704;-72
2021/12/08 01:51:20;;;;;;;0.08;0.08;;;;;;;;;;1725404;28;20203;-71
2021/12/08 01:52:12;;;;;;;0.10;0.10;;;;;;;;;;1724129;28;20532;-71
2021/12/08 01:53:07;;;;;;;0.10;0.10;;;;;;;;;;1725786;28;20208;-71
2021/12/08 01:54:02;;;;;;;0.10;0.10;;;;;;;;;;1724325;28;20226;-71
2021/12/08 01:54:53;;;;;;;0.00;0.00;;;;;;;;;;1725560;28;20615;-71
2021/12/08 01:55:45;;;;;;;0.10;0.10;;;;;;;;;;1720911;28;20235;-71
2021/12/08 01:56:37;;;;;;;0.10;0.10;;;;;;;;;;1725419;28;20232;-71
2021/12/08 01:57:29;;;;;;;0.10;0.10;;;;;;;;;;1724381;28;20231;-71
2021/12/08 01:58:21;;;;;;;0.08;0.08;;;;;;;;;;1725129;28;20634;-71
2021/12/08 01:59:13;;;;;;;0.20;0.20;;;;;;;;;;1724962;28;20202;-71
2021/12/08 02:00:06;;;;;;;0.00;0.00;;;;;;;;;;1724998;28;20222;-71
2021/12/08 02:01:01;;;;;;;0.00;0.00;;;;;;;;;;1723006;28;20574;-71
2021/12/08 02:01:52;;;;;;;0.10;0.10;;;;;;;;;;1719176;28;20646;-71
2021/12/08 02:02:46;;;;;;;0.10;0.10;;;;;;;;;;1722422;28;20306;-71
2021/12/08 02:03:38;;;;;;;0.20;0.20;;;;;;;;;;1725201;28;20213;-71
2021/12/08 02:04:31;;;;;;;0.10;0.10;;;;;;;;;;1724727;28;20569;-71
2021/12/08 02:05:22;;;;;;;0.17;0.17;;;;;;;;;;1724797;28;20585;-71
2021/12/08 02:06:17;;;;;;;0.10;0.10;;;;;;;;;;1723348;28;20229;-71
2021/12/08 02:07:08;;;;;;;0.10;0.10;;;;;;;;;;1724741;28;20235;-71
2021/12/08 02:08:00;;;;;;;0.03;0.03;;;;;;;;;;1725463;28;20596;-71
2021/12/08 02:08:53;;;;;;;0.10;0.10;;;;;;;;;;1724566;28;20208;-71
2021/12/08 02:09:45;;;;;;;0.00;0.00;;;;;;;;;;1724843;28;20204;-71
2021/12/08 02:10:37;;;;;;;0.10;0.10;;;;;;;;;;1723972;28;20212;-71
2021/12/08 02:11:29;;;;;;;0.10;0.10;;;;;;;;;;1722563;28;20532;-71
2021/12/08 02:12:21;;;;;;;0.20;0.20;;;;;;;;;;1723753;28;20663;-71
2021/12/08 02:13:13;;;;;;;0.10;0.10;;;;;;;;;;1725653;28;20215;-71
2021/12/08 02:14:04;;;;;;;0.32;0.32;;;;;;;;;;1724866;28;20282;-71
2021/12/08 02:14:59;;;;;;;0.20;0.20;;;;;;;;;;1725583;28;20208;-71
2021/12/08 02:15:50;;;;;;;0.00;0.00;;;;;;;;;;1723552;28;20327;-71
2021/12/08 02:16:42;;;;;;;0.10;0.10;;;;;;;;;;1724826;28;20618;-71
2021/12/08 02:17:34;;;;;;;0.10;0.10;;;;;;;;;;1723198;28;20220;-71
2021/12/08 02:18:27;;;;;;;0.13;0.13;;;;;;;;;;1725567;28;20200;-71
2021/12/08 02:19:19;;;;;;;0.10;0.10;;;;;;;;;;1724311;28;20304;-71
2021/12/08 02:20:12;;;;;;;0.10;0.10;;;;;;;;;;1726196;28;20212;-71
2021/12/08 02:21:05;;;;;;;0.00;0.00;;;;;;;;;;1723582;28;20845;-71
2021/12/08 02:21:57;;;;;;;0.10;0.10;;;;;;;;;;1725137;28;20294;-71
2021/12/08 02:22:49;;;;;;;0.20;0.20;;;;;;;;;;1724664;28;20208;-71
2021/12/08 02:23:43;;;;;;;0.03;0.03;;;;;;;;;;1725176;28;20590;-71
2021/12/08 02:24:34;;;;;;;0.00;0.00;;;;;;;;;;1725430;28;20254;-71
2021/12/08 02:25:27;;;;;;;0.00;0.00;;;;;;;;;;1724769;28;20225;-71
2021/12/08 02:26:18;;;;;;;0.00;0.00;;;;;;;;;;1725057;28;20433;-71
2021/12/08 02:27:11;;;;;;;0.10;0.10;;;;;;;;;;1724159;28;20268;-71
2021/12/08 02:28:04;;;;;;;0.00;0.00;;;;;;;;;;1725077;28;20694;-71
2021/12/08 02:28:57;;;;;;;0.00;0.00;;;;;;;;;;1724457;28;20213;-71
2021/12/08 02:29:54;;;;;;;0.10;0.10;;;;;;;;;;1725382;28;20812;-71
2021/12/08 02:30:51;;;;;;;0.05;0.05;;;;;;;;;;1724251;28;20263;-71
2021/12/08 02:31:50;;;;;;;0.10;0.10;;;;;;;;;;1725544;28;20653;-71
2021/12/08 02:47:03;;;;;;;0.10;0.10;;;;;;;;;;1717496;28;20200;-71
2021/12/08 02:47:55;;;;;;;0.10;0.10;;;;;;;;;;1718362;28;20271;-71
2021/12/08 02:48:47;;;;;;;0.08;0.08;;;;;;;;;;1717939;28;20546;-71
2021/12/08 02:49:38;;;;;;;0.10;0.10;;;;;;;;;;1718179;28;20707;-71
2021/12/08 02:50:31;;;;;;;0.10;0.10;;;;;;;;;;1717236;28;20563;-71
2021/12/08 02:51:24;;;;;;;0.20;0.20;;;;;;;;;;1714277;28;20249;-71
2021/12/08 02:52:16;;;;;;;0.00;0.00;;;;;;;;;;1717093;28;20212;-71
2021/12/08 02:53:08;;;;;;;0.13;0.13;;;;;;;;;;1718568;28;20209;-71
2021/12/08 02:54:00;;;;;;;0.00;0.00;;;;;;;;;;1717744;28;20206;-71
2021/12/08 02:54:52;;;;;;;0.13;0.13;;;;;;;;;;1718414;28;20204;-71
2021/12/08 02:55:45;;;;;;;0.00;0.00;;;;;;;;;;1717639;28;20243;-71
2021/12/08 02:56:36;;;;;;;0.20;0.20;;;;;;;;;;1718214;28;20586;-71
2021/12/08 02:57:29;;;;;;;0.00;0.00;;;;;;;;;;1716471;28;20201;-71
2021/12/08 02:58:20;;;;;;;0.10;0.10;;;;;;;;;;1718301;28;20232;-71
2021/12/08 02:59:13;;;;;;;0.10;0.10;;;;;;;;;;1716937;28;20208;-71
2021/12/08 03:00:06;;;;;;;0.08;0.08;;;;;;;;;;1718618;28;20654;-71
2021/12/08 03:01:01;;;;;;;0.00;0.00;;;;;;;;;;1715771;28;20574;-71
2021/12/08 03:01:52;;;;;;;0.13;0.13;;;;;;;;;;1718763;28;20553;-71
2021/12/08 03:02:45;;;;;;;0.03;0.03;;;;;;;;;;1717614;28;20302;-71
2021/12/08 03:03:36;;;;;;;0.00;0.00;;;;;;;;;;1717633;28;20676;-71
2021/12/08 03:04:28;;;;;;;0.10;0.10;;;;;;;;;;1718090;28;20428;-71
2021/12/08 03:05:20;;;;;;;0.10;0.10;;;;;;;;;;1718799;28;20212;-71
2021/12/08 03:06:13;;;;;;;0.08;0.08;;;;;;;;;;1716524;28;20232;-71
2021/12/08 03:07:06;;;;;;;0.00;0.00;;;;;;;;;;1717632;28;20214;-71
2021/12/08 03:07:59;;;;;;;0.20;0.20;;;;;;;;;;1718315;28;20209;-71
2021/12/08 03:08:50;;;;;;;0.10;0.10;;;;;;;;;;1717218;28;20279;-71
2021/12/08 03:09:42;;;;;;;0.10;0.10;;;;;;;;;;1717407;28;20204;-71
2021/12/08 03:10:36;;;;;;;0.00;0.00;;;;;;;;;;1716500;28;20549;-72
2021/12/08 03:11:28;;;;;;;0.00;0.00;;;;;;;;;;1718615;28;20230;-72
2021/12/08 03:12:28;;;;;;;0.00;0.00;;;;;;;;;;1715768;28;20207;-71
2021/12/08 03:13:20;;;;;;;0.00;0.00;;;;;;;;;;1718638;28;20210;-71
2021/12/08 03:14:13;;;;;;;0.10;0.10;;;;;;;;;;1717017;28;20519;-71
2021/12/08 03:15:06;;;;;;;0.10;0.10;;;;;;;;;;1717611;28;20234;-71
2021/12/08 03:15:58;;;;;;;0.10;0.10;;;;;;;;;;1715343;28;20589;-71
2021/12/08 03:16:51;;;;;;;0.00;0.00;;;;;;;;;;1718272;28;20207;-71
2021/12/08 03:17:43;;;;;;;0.32;0.32;;;;;;;;;;1716619;28;20290;-71
2021/12/08 03:18:36;;;;;;;0.10;0.10;;;;;;;;;;1718808;28;20232;-71
2021/12/08 03:19:30;;;;;;;0.20;0.20;;;;;;;;;;1717541;28;20590;-71
2021/12/08 03:20:28;;;;;;;0.22;0.22;;;;;;;;;;1717667;28;20205;-71
2021/12/08 03:21:27;;;;;;;0.10;0.10;;;;;;;;;;1717289;28;20193;-71
2021/12/08 03:22:20;;;;;;;0.20;0.20;;;;;;;;;;1716947;28;20304;-71
2021/12/08 03:23:14;;;;;;;0.08;0.08;;;;;;;;;;1718669;28;20201;-71
2021/12/08 03:24:18;;;;;;;0.00;0.00;;;;;;;;;;1718799;28;20205;-71
2021/12/08 03:25:12;;;;;;;0.00;0.00;;;;;;;;;;1713985;28;20194;-71
2021/12/08 03:26:06;;;;;;;0.00;0.00;;;;;;;;;;1716736;28;20308;-71
2021/12/08 03:27:07;;;;;;;0.00;0.00;;;;;;;;;;1719443;28;20218;-71
2021/12/08 03:28:08;;;;;;;0.03;0.03;;;;;;;;;;1719159;28;20261;-72
2021/12/08 03:29:03;;;;;;;0.10;0.10;;;;;;;;;;1718992;28;20193;-72
2021/12/08 03:29:59;;;;;;;0.00;0.00;;;;;;;;;;1719679;28;20946;-72
2021/12/08 03:30:57;;;;;;;0.10;0.10;;;;;;;;;;1718281;28;20629;-71
2021/12/08 03:31:52;;;;;;;0.10;0.10;;;;;;;;;;1719607;28;20224;-71
2021/12/08 03:32:43;;;;;;;0.00;0.00;;;;;;;;;;1718450;28;20425;-72
2021/12/08 03:33:36;;;;;;;0.00;0.00;;;;;;;;;;1719516;28;20544;-72
2021/12/08 03:34:27;;;;;;;0.05;0.05;;;;;;;;;;1718853;28;20208;-72
2021/12/08 03:35:19;;;;;;;0.10;0.10;;;;;;;;;;1720438;28;20208;-72
2021/12/08 03:36:11;;;;;;;0.00;0.00;;;;;;;;;;1718181;28;20527;-71
2021/12/08 03:37:03;;;;;;;0.00;0.00;;;;;;;;;;1719607;28;20203;-71
2021/12/08 03:37:56;;;;;;;0.10;0.10;;;;;;;;;;1721230;28;20232;-71
2021/12/08 03:38:48;;;;;;;0.10;0.10;;;;;;;;;;1725789;28;20208;-72
2021/12/08 03:39:40;;;;;;;0.10;0.10;;;;;;;;;;1722266;28;20213;-72
2021/12/08 03:40:33;;;;;;;0.17;0.17;;;;;;;;;;1725628;28;20201;-72
2021/12/08 03:41:31;;;;;;;0.00;0.00;;;;;;;;;;1726749;28;20319;-72
2021/12/08 03:42:25;;;;;;;0.00;0.00;;;;;;;;;;1725656;28;20207;-72
2021/12/08 03:43:16;;;;;;;0.00;0.00;;;;;;;;;;1726723;28;20206;-72
2021/12/08 03:44:08;;;;;;;0.00;0.00;;;;;;;;;;1725432;28;20218;-72
2021/12/08 03:45:02;;;;;;;0.00;0.00;;;;;;;;;;1726203;28;20840;-72
2021/12/08 03:45:55;;;;;;;0.00;0.00;;;;;;;;;;1724947;28;20238;-72
2021/12/08 03:46:47;;;;;;;0.10;0.10;;;;;;;;;;1726202;28;20274;-72
2021/12/08 03:47:41;;;;;;;0.00;0.00;;;;;;;;;;1722632;28;20275;-72
2021/12/08 03:48:38;;;;;;;0.00;0.00;;;;;;;;;;1726521;28;20756;-72
2021/12/08 03:49:31;;;;;;;0.00;0.00;;;;;;;;;;1723940;28;20312;-72
2021/12/08 03:50:23;;;;;;;0.00;0.00;;;;;;;;;;1725895;28;20220;-72
2021/12/08 03:51:16;;;;;;;0.00;0.00;;;;;;;;;;1725228;28;20228;-71
2021/12/08 03:52:07;;;;;;;0.00;0.00;;;;;;;;;;1726120;28;20242;-71
2021/12/08 03:53:00;;;;;;;0.20;0.20;;;;;;;;;;1722116;28;20533;-72
2021/12/08 03:53:52;;;;;;;0.00;0.00;;;;;;;;;;1725386;28;20730;-72
2021/12/08 03:54:44;;;;;;;0.00;0.00;;;;;;;;;;1722615;28;20538;-72
2021/12/08 03:55:35;;;;;;;0.00;0.00;;;;;;;;;;1721339;28;20260;-72
2021/12/08 03:56:27;;;;;;;0.05;0.05;;;;;;;;;;1726269;28;20583;-72
2021/12/08 03:57:19;;;;;;;0.00;0.00;;;;;;;;;;1723620;28;20204;-72
2021/12/08 03:58:11;;;;;;;0.10;0.10;;;;;;;;;;1726426;28;20254;-71
2021/12/08 03:59:03;;;;;;;0.20;0.20;;;;;;;;;;1725583;28;20211;-72
2021/12/08 03:59:55;;;;;;;0.00;0.00;;;;;;;;;;1726556;28;20626;-72
2021/12/08 04:00:48;;;;;;;0.10;0.10;;;;;;;;;;1724439;28;20236;-71
2021/12/08 04:01:40;;;;;;;0.00;0.00;;;;;;;;;;1726413;28;20261;-72
2021/12/08 04:02:31;;;;;;;0.00;0.00;;;;;;;;;;1725500;28;20200;-72
2021/12/08 04:03:25;;;;;;;0.00;0.00;;;;;;;;;;1725763;28;20201;-72
2021/12/08 04:04:16;;;;;;;0.00;0.00;;;;;;;;;;1725925;28;20301;-72
2021/12/08 04:05:09;;;;;;;0.10;0.10;;;;;;;;;;1726907;28;20205;-71
2021/12/08 04:06:04;;;;;;;0.00;0.00;;;;;;;;;;1724299;28;20669;-71
2021/12/08 04:07:01;;;;;;;0.10;0.10;;;;;;;;;;1726178;28;20627;-71
2021/12/08 04:07:53;;;;;;;0.00;0.00;;;;;;;;;;1724879;28;20278;-71
2021/12/08 04:08:54;;;;;;;0.10;0.10;;;;;;;;;;1725736;28;20629;-71
2021/12/08 04:09:47;;;;;;;0.00;0.00;;;;;;;;;;1722415;28;20212;-71
2021/12/08 04:10:40;;;;;;;0.10;0.10;;;;;;;;;;1725475;28;20241;-71
2021/12/08 04:11:31;;;;;;;0.10;0.10;;;;;;;;;;1726277;28;20631;-71
2021/12/08 04:12:23;;;;;;;0.10;0.10;;;;;;;;;;1723550;28;20256;-71
2021/12/08 04:13:14;;;;;;;0.05;0.05;;;;;;;;;;1726289;28;20200;-71
2021/12/08 04:14:08;;;;;;;0.20;0.20;;;;;;;;;;1725592;28;20212;-71
2021/12/08 04:15:01;;;;;;;0.20;0.20;;;;;;;;;;1725981;28;20202;-71
2021/12/08 04:15:53;;;;;;;0.10;0.10;;;;;;;;;;1724880;28;20238;-71
2021/12/08 04:16:47;;;;;;;0.10;0.10;;;;;;;;;;1726094;28;20200;-71
2021/12/08 04:17:41;;;;;;;0.00;0.00;;;;;;;;;;1725717;28;20208;-71
2021/12/08 04:18:34;;;;;;;0.00;0.00;;;;;;;;;;1719225;28;20677;-71
2021/12/08 04:19:26;;;;;;;0.00;0.00;;;;;;;;;;1725310;28;20231;-71
2021/12/08 04:20:19;;;;;;;0.00;0.00;;;;;;;;;;1726947;28;20561;-71
2021/12/08 04:21:11;;;;;;;0.00;0.00;;;;;;;;;;1724566;28;20220;-71
2021/12/08 04:22:10;;;;;;;0.00;0.00;;;;;;;;;;1726048;28;20270;-71
2021/12/08 04:23:04;;;;;;;0.00;0.00;;;;;;;;;;1726315;28;20227;-72
2021/12/08 04:23:58;;;;;;;0.00;0.00;;;;;;;;;;1725549;28;20230;-71
2021/12/08 04:24:50;;;;;;;0.00;0.00;;;;;;;;;;1725985;28;20220;-72
2021/12/08 04:25:44;;;;;;;0.20;0.20;;;;;;;;;;1723477;28;20240;-72
2021/12/08 04:26:37;;;;;;;0.00;0.00;;;;;;;;;;1725477;28;20507;-72
2021/12/08 04:27:32;;;;;;;0.00;0.00;;;;;;;;;;1724905;28;20209;-71
2021/12/08 04:28:25;;;;;;;0.00;0.00;;;;;;;;;;1725980;28;20214;-72
2021/12/08 04:29:18;;;;;;;0.08;0.08;;;;;;;;;;1725199;28;20346;-72
2021/12/08 04:30:11;;;;;;;0.00;0.00;;;;;;;;;;1726186;28;20223;-72
2021/12/08 04:31:10;;;;;;;0.10;0.10;;;;;;;;;;1724405;28;20226;-72
2021/12/08 04:32:02;;;;;;;0.10;0.10;;;;;;;;;;1725983;28;20526;-72
2021/12/08 04:32:54;;;;;;;0.00;0.00;;;;;;;;;;1725063;28;20747;-71
2021/12/08 04:33:46;;;;;;;0.00;0.00;;;;;;;;;;1725759;28;20208;-71
2021/12/08 04:34:40;;;;;;;0.00;0.00;;;;;;;;;;1725854;28;20207;-72
2021/12/08 04:35:32;;;;;;;0.00;0.00;;;;;;;;;;1723810;28;20279;-72
2021/12/08 04:36:25;;;;;;;0.00;0.00;;;;;;;;;;1725555;28;20250;-72
2021/12/08 04:37:21;;;;;;;0.00;0.00;;;;;;;;;;1725593;28;20200;-72
2021/12/08 04:38:17;;;;;;;0.10;0.10;;;;;;;;;;1725902;28;20256;-72
2021/12/08 04:39:15;;;;;;;0.00;0.00;;;;;;;;;;1724893;28;20239;-72
2021/12/08 04:40:19;;;;;;;0.10;0.10;;;;;;;;;;1726732;28;20196;-71
2021/12/08 04:41:13;;;;;;;0.00;0.00;;;;;;;;;;1725085;28;20231;-71
2021/12/08 04:42:10;;;;;;;0.00;0.00;;;;;;;;;;1725359;28;20534;-71
2021/12/08 04:43:11;;;;;;;0.15;0.15;;;;;;;;;;1725821;28;20290;-71
2021/12/08 04:44:11;;;;;;;0.10;0.10;;;;;;;;;;1725445;28;20209;-71
2021/12/08 04:45:10;;;;;;;0.00;0.00;;;;;;;;;;1725354;28;20325;-71
2021/12/08 04:46:10;;;;;;;0.00;0.00;;;;;;;;;;1724225;28;20697;-71
2021/12/08 04:48:22;;;;;;;0.00;0.00;;;;;;;;;;1720804;28;20320;-71
2021/12/08 04:49:29;;;;;;;0.00;0.00;;;;;;;;;;1725247;28;20681;-72
2021/12/08 04:50:46;;;;;;;0.05;0.05;;;;;;;;;;1719154;28;20249;-71
2021/12/08 04:51:47;;;;;;;0.00;0.00;;;;;;;;;;1724226;28;20647;-71
2021/12/08 04:52:51;;;;;;;0.00;0.00;;;;;;;;;;1725507;28;20243;-71
2021/12/08 04:54:02;;;;;;;0.00;0.00;;;;;;;;;;1725592;28;20193;-71
2021/12/08 05:01:15;;;;;;;0.00;0.00;;;;;;;;;;1724578;28;20621;-72
2021/12/08 05:02:26;;;;;;;0.00;0.00;;;;;;;;;;1718537;28;20207;-71
2021/12/08 05:03:43;;;;;;;0.00;0.00;;;;;;;;;;1724591;28;20498;-71
2021/12/08 05:04:50;;;;;;;0.00;0.00;;;;;;;;;;1725214;28;20617;-71
2021/12/08 05:05:59;;;;;;;0.00;0.00;;;;;;;;;;1724386;28;20586;-71
2021/12/08 05:07:02;;;;;;;0.00;0.00;;;;;;;;;;1719461;28;20208;-71
2021/12/08 05:07:58;;;;;;;0.00;0.00;;;;;;;;;;1725348;28;20679;-71
2021/12/08 05:08:50;;;;;;;0.03;0.03;;;;;;;;;;1724563;28;20224;-72
2021/12/08 05:09:44;;;;;;;0.00;0.00;;;;;;;;;;1725638;28;20592;-72
2021/12/08 05:10:37;;;;;;;0.00;0.00;;;;;;;;;;1724296;28;20632;-72
2021/12/08 05:11:30;;;;;;;0.00;0.00;;;;;;;;;;1726211;28;20342;-71
2021/12/08 05:12:24;;;;;;;0.00;0.00;;;;;;;;;;1724912;28;20214;-72
2021/12/08 05:13:17;;;;;;;0.00;0.00;;;;;;;;;;1726229;28;20331;-72
2021/12/08 05:14:11;;;;;;;0.00;0.00;;;;;;;;;;1724448;28;20221;-71
2021/12/08 05:15:08;;;;;;;0.00;0.00;;;;;;;;;;1725825;28;20550;-72
2021/12/08 05:15:59;;;;;;;0.00;0.00;;;;;;;;;;1722395;28;20621;-72
2021/12/08 05:16:53;;;;;;;0.03;0.03;;;;;;;;;;1725654;28;20281;-72
2021/12/08 05:17:46;;;;;;;0.00;0.00;;;;;;;;;;1725340;28;20219;-72
2021/12/08 05:18:41;;;;;;;0.10;0.10;;;;;;;;;;1725783;28;20200;-72
2021/12/08 05:19:34;;;;;;;0.00;0.00;;;;;;;;;;1724083;28;20238;-71
2021/12/08 05:20:31;;;;;;;0.00;0.00;;;;;;;;;;1725696;28;20227;-72
2021/12/08 05:21:25;;;;;;;0.00;0.00;;;;;;;;;;1726273;28;20588;-72
2021/12/08 05:22:20;;;;;;;0.00;0.00;;;;;;;;;;1724766;28;20197;-72
2021/12/08 05:23:19;;;;;;;0.00;0.00;;;;;;;;;;1726274;28;20702;-72
2021/12/08 05:24:13;;;;;;;0.00;0.00;;;;;;;;;;1725132;28;20199;-71
2021/12/08 05:25:07;;;;;;;0.00;0.00;;;;;;;;;;1726162;28;20208;-71
2021/12/08 05:26:02;;;;;;;0.00;0.00;;;;;;;;;;1722872;28;20246;-71
2021/12/08 05:26:54;;;;;;;0.05;0.05;;;;;;;;;;1718828;28;20205;-71
2021/12/08 05:27:48;;;;;;;0.00;0.00;;;;;;;;;;1723814;28;20234;-71
2021/12/08 05:28:40;;;;;;;0.00;0.00;;;;;;;;;;1725765;28;20654;-71
2021/12/08 05:29:34;;;;;;;0.00;0.00;;;;;;;;;;1725553;28;20212;-71
2021/12/08 05:30:27;;;;;;;0.00;0.00;;;;;;;;;;1725047;28;20219;-71
2021/12/08 05:31:23;;;;;;;0.00;0.00;;;;;;;;;;1725577;28;20298;-71
2021/12/08 05:32:15;;;;;;;0.00;0.00;;;;;;;;;;1724364;28;20193;-71
2021/12/08 05:33:07;;;;;;;0.00;0.00;;;;;;;;;;1725168;28;20324;-71
2021/12/08 05:33:59;;;;;;;0.00;0.00;;;;;;;;;;1724240;28;20662;-71
2021/12/08 05:34:52;;;;;;;0.00;0.00;;;;;;;;;;1723151;28;20200;-71
2021/12/08 05:35:43;;;;;;;0.00;0.00;;;;;;;;;;1724582;28;20252;-71
2021/12/08 05:36:36;;;;;;;0.00;0.00;;;;;;;;;;1725595;28;20200;-71
2021/12/08 05:37:28;;;;;;;0.00;0.00;;;;;;;;;;1724716;28;20211;-71
2021/12/08 05:38:20;;;;;;;0.00;0.00;;;;;;;;;;1724739;28;20724;-71
2021/12/08 05:39:14;;;;;;;0.00;0.00;;;;;;;;;;1724135;28;20212;-71
2021/12/08 05:40:09;;;;;;;0.00;0.00;;;;;;;;;;1726189;28;20204;-71
2021/12/08 05:41:05;;;;;;;0.00;0.00;;;;;;;;;;1724264;28;20236;-71
2021/12/08 05:42:00;;;;;;;0.00;0.00;;;;;;;;;;1726170;28;20331;-71
2021/12/08 05:42:51;;;;;;;0.00;0.00;;;;;;;;;;1724986;28;20208;-71
2021/12/08 05:43:44;;;;;;;0.00;0.00;;;;;;;;;;1725335;28;20276;-71
2021/12/08 05:44:36;;;;;;;0.00;0.00;;;;;;;;;;1724493;28;20204;-71
2021/12/08 05:45:28;;;;;;;0.00;0.00;;;;;;;;;;1724405;28;20743;-71
2021/12/08 05:46:20;;;;;;;0.00;0.00;;;;;;;;;;1725149;28;20631;-71